»·PEaware :: N982PE KSMX-KBFL

N982PE :: KSMX-KBFL

FLIGHT INFORMATION

Flight Status: Arrived
Operator: Privately registered:
United States
More flights under this callsign
Pilot: Anonymous 15639 (15639)
Aircraft: CESSNA 172 SKYHAWK
(C172)
More flights by this aircraft type
Origin: KSMX Santa Maria Pub/Capt Hancock
United States
Destination: KBFL Meadows
United States
More flights between these airports :: More routes between these airports
Route:
File this flight plan on PilotEdge
Remarks: / RMK CAT5
Altitude:
(Current/Filed)
5,500ft
Speed:
(Current/Filed)
120kts
Departed: 08-Jun-17 01:24 PM
Arrived: 08-Jun-17 02:21 PM
Distance/Time
Traveled:
76nm/0:57
Distance/Time
To Go:
Arrived

Flight Plot

Page will automatically refresh every two minutes.


Map Options




Map Legend


Flown Route
Filed Route
Departure Airport
Arrival Airport
Navaid (VOR, NDB)
Fix

Horizontal Profiles

Position Reports

Time Latitude Longitude Heading Altitude Ground
Speed
08-Jun-17 13:10 34.899302 -120.449701 239 264ft 0kts
08-Jun-17 13:11 34.899302 -120.449701 239 264ft 0kts
08-Jun-17 13:12 34.899302 -120.449701 239 264ft 0kts
08-Jun-17 13:13 34.899302 -120.449701 239 264ft 0kts
08-Jun-17 13:14 34.899302 -120.449701 239 264ft 0kts
08-Jun-17 13:15 34.899302 -120.449701 239 264ft 0kts
08-Jun-17 13:16 34.899302 -120.449701 239 264ft 0kts
08-Jun-17 13:17 34.899302 -120.449701 239 264ft 0kts
08-Jun-17 13:18 34.899302 -120.449701 239 264ft 0kts
08-Jun-17 13:19 34.899302 -120.449701 239 264ft 0kts
08-Jun-17 13:20 34.898395 -120.449820 182 264ft 7kts
08-Jun-17 13:21 34.896541 -120.447796 136 264ft 10kts
08-Jun-17 13:22 34.893979 -120.445380 180 264ft 8kts
08-Jun-17 13:23 34.893684 -120.445385 178 264ft 0kts
08-Jun-17 13:24 34.893684 -120.445385 178 264ft 0kts
08-Jun-17 13:25 34.892987 -120.445646 259 264ft 11kts
08-Jun-17 13:26 34.903110 -120.458507 318 798ft 72kts
08-Jun-17 13:27 34.918749 -120.441675 58 1689ft 95kts
08-Jun-17 13:28 34.928761 -120.410680 66 2483ft 103kts
08-Jun-17 13:29 34.938278 -120.378449 60 3281ft 101kts
08-Jun-17 13:30 34.949766 -120.346864 59 4009ft 104kts
08-Jun-17 13:31 34.961818 -120.316739 61 4686ft 105kts
08-Jun-17 13:32 34.973742 -120.283659 61 5361ft 107kts
08-Jun-17 13:33 34.991549 -120.250509 52 5537ft 128kts
08-Jun-17 13:34 35.011802 -120.213879 52 5523ft 131kts
08-Jun-17 13:35 35.033312 -120.177352 47 5477ft 133kts
08-Jun-17 13:36 35.057509 -120.143006 42 5412ft 136kts
08-Jun-17 13:37 35.082091 -120.109809 46 5500ft 128kts
08-Jun-17 13:38 35.098508 -120.071248 87 5448ft 132kts
08-Jun-17 13:39 35.090613 -120.028589 116 5516ft 126kts
08-Jun-17 13:40 35.078252 -119.989689 114 5557ft 130kts
08-Jun-17 13:41 35.064088 -119.949402 116 5657ft 127kts
08-Jun-17 13:42 35.050126 -119.908564 119 5659ft 131kts
08-Jun-17 13:43 35.033249 -119.867968 124 5597ft 135kts
08-Jun-17 13:44 35.013691 -119.830811 129 5419ft 132kts
08-Jun-17 13:45 34.996355 -119.794287 125 5451ft 121kts
08-Jun-17 13:46 34.978861 -119.759571 127 5574ft 120kts
08-Jun-17 13:47 34.963441 -119.723475 112 5746ft 122kts
08-Jun-17 13:48 34.953098 -119.682977 106 5725ft 131kts
08-Jun-17 13:49 34.955101 -119.637569 75 5533ft 132kts
08-Jun-17 13:50 34.966121 -119.595592 70 5516ft 129kts
08-Jun-17 13:51 34.971253 -119.552292 89 5516ft 130kts
08-Jun-17 13:52 34.963286 -119.510521 115 5548ft 127kts
08-Jun-17 13:53 34.945227 -119.473914 128 5534ft 128kts
08-Jun-17 13:54 34.949177 -119.438237 25 5549ft 127kts
08-Jun-17 13:55 34.979269 -119.415562 27 5466ft 124kts
08-Jun-17 13:56 35.008300 -119.392814 26 5384ft 124kts
08-Jun-17 13:57 35.036558 -119.372086 25 5500ft 117kts
08-Jun-17 13:58 35.064872 -119.351262 24 5510ft 121kts
08-Jun-17 13:59 35.090128 -119.332385 24 5438ft 129kts
08-Jun-17 14:00 35.115734 -119.313723 22 5421ft 126kts
08-Jun-17 14:01 35.146676 -119.294613 20 5352ft 122kts
08-Jun-17 14:02 35.174827 -119.275519 24 5497ft 114kts
08-Jun-17 14:03 35.202571 -119.256519 22 5609ft 114kts
08-Jun-17 14:04 35.230654 -119.237876 28 5724ft 115kts
08-Jun-17 14:05 35.255522 -119.212935 35 4869ft 116kts
08-Jun-17 14:06 35.279961 -119.188085 28 3951ft 113kts
08-Jun-17 14:07 35.306268 -119.168531 24 3060ft 109kts
08-Jun-17 14:08 35.332151 -119.149686 27 2182ft 108kts
08-Jun-17 14:09 35.357008 -119.128461 33 2067ft 109kts
08-Jun-17 14:10 35.382613 -119.113284 6 1895ft 96kts
08-Jun-17 14:11 35.407693 -119.102569 45 1598ft 99kts
08-Jun-17 14:12 35.402493 -119.072483 127 1573ft 97kts
08-Jun-17 14:13 35.390283 -119.046847 79 1371ft 83kts
08-Jun-17 14:14 35.402827 -119.026997 352 1147ft 65kts
08-Jun-17 14:15 35.416217 -119.038304 309 823ft 59kts
08-Jun-17 14:16 35.428130 -119.052603 312 637ft 72kts
08-Jun-17 14:17 35.444140 -119.073289 290 1226ft 88kts
08-Jun-17 14:18 35.427491 -119.088117 145 1139ft 104kts
08-Jun-17 14:19 35.407119 -119.063957 140 1113ft 95kts
08-Jun-17 14:20 35.403426 -119.039357 45 1049ft 82kts
08-Jun-17 14:21 35.417342 -119.039663 308 825ft 61kts
08-Jun-17 14:22 35.429321 -119.054208 311 536ft 58kts
08-Jun-17 14:23 35.434050 -119.061187 303 498ft 5kts
08-Jun-17 14:24 35.434236 -119.061391 135 498ft 10kts
08-Jun-17 14:25 35.431585 -119.058165 136 498ft 14kts
08-Jun-17 14:26 35.429810 -119.057559 226 498ft 6kts
08-Jun-17 14:27 35.429482 -119.057628 321 498ft 0kts
08-Jun-17 14:28 35.429482 -119.057628 321 498ft 0kts
08-Jun-17 14:29 35.429482 -119.057628 321 498ft 0kts
08-Jun-17 14:30 35.429482 -119.057628 321 498ft 0kts
08-Jun-17 14:31 35.429482 -119.057628 321 498ft 0kts
08-Jun-17 14:32 35.429482 -119.057628 321 498ft 0kts
08-Jun-17 14:33 35.429482 -119.057628 321 498ft 0kts
08-Jun-17 14:34 35.429482 -119.057628 321 498ft 0kts

Navigation Log

Ident Type
1. KSMX Airport
2. KBFL Airport